Time;durP1;ratioP1;P1;durP2;ratioP2;P2;SDS_P1;SDS_P2;PMS_P1;PMS_P2;Temp;Humidity;BMP_temperature;BMP_pressure;BME280_temperature;BME280_humidity;BME280_pressure;Samples;Min_cycle;Max_cycle;Signal;HPM_P1;HPM_P2
2024/03/28 00:01:27;;;;;;;5.20;3.40;;;;;;;;;;5035705;28;20048;-76
2024/03/28 00:03:52;;;;;;;4.70;3.17;;;;;;;;;;5038182;28;20070;-76
2024/03/28 00:06:18;;;;;;;5.45;3.40;;;;;;;;;;5046275;28;20119;-76
2024/03/28 00:08:43;;;;;;;5.78;3.50;;;;;;;;;;5045031;28;20039;-75
2024/03/28 00:11:08;;;;;;;4.60;3.05;;;;;;;;;;5041786;28;20032;-76
2024/03/28 00:13:34;;;;;;;5.40;3.05;;;;;;;;;;5044258;28;20084;-76
2024/03/28 00:16:00;;;;;;;4.95;3.47;;;;;;;;;;5039185;28;20025;-75
2024/03/28 00:18:26;;;;;;;5.95;3.45;;;;;;;;;;5030013;28;20040;-76
2024/03/28 00:20:59;;;;;;;6.15;3.60;;;;;;;;;;5050259;28;20100;-76
2024/03/28 00:23:25;;;;;;;6.22;3.65;;;;;;;;;;5052504;28;20559;-76
2024/03/28 00:25:51;;;;;;;7.05;3.65;;;;;;;;;;5048606;28;20115;-76
2024/03/28 00:28:17;;;;;;;5.75;3.85;;;;;;;;;;5030725;28;20152;-76
2024/03/28 00:30:42;;;;;;;4.90;3.38;;;;;;;;;;5047969;28;20119;-76
2024/03/28 00:33:07;;;;;;;6.43;3.80;;;;;;;;;;5035988;28;20024;-75
2024/03/28 00:35:33;;;;;;;5.72;3.55;;;;;;;;;;5036266;28;20440;-76
2024/03/28 00:37:58;;;;;;;7.00;3.70;;;;;;;;;;5053846;28;20024;-75
2024/03/28 00:40:23;;;;;;;5.00;3.15;;;;;;;;;;5052561;28;20029;-75
2024/03/28 00:42:49;;;;;;;4.90;3.22;;;;;;;;;;5034185;28;20024;-76
2024/03/28 00:45:14;;;;;;;5.13;3.50;;;;;;;;;;5051222;28;20032;-75
2024/03/28 00:47:39;;;;;;;5.32;3.05;;;;;;;;;;5034900;28;20502;-76
2024/03/28 00:50:05;;;;;;;4.30;2.97;;;;;;;;;;5054530;28;20032;-75
2024/03/28 00:52:30;;;;;;;6.70;3.33;;;;;;;;;;5051322;28;20155;-76
2024/03/28 00:54:56;;;;;;;5.45;3.08;;;;;;;;;;5054644;28;20028;-76
2024/03/28 00:57:21;;;;;;;5.22;3.20;;;;;;;;;;5033088;28;20025;-75
2024/03/28 00:59:50;;;;;;;5.28;3.13;;;;;;;;;;5052160;28;20060;-75
2024/03/28 01:02:16;;;;;;;6.70;2.97;;;;;;;;;;5032407;28;20167;-76
2024/03/28 01:04:42;;;;;;;8.30;3.20;;;;;;;;;;5045594;28;20099;-76
2024/03/28 01:07:07;;;;;;;5.55;3.03;;;;;;;;;;5045770;28;20087;-76
2024/03/28 01:09:33;;;;;;;4.32;2.85;;;;;;;;;;5046719;28;20541;-76
2024/03/28 01:11:58;;;;;;;5.18;3.15;;;;;;;;;;5047178;28;20609;-75
2024/03/28 01:14:23;;;;;;;5.40;3.10;;;;;;;;;;5046745;28;20020;-76
2024/03/28 01:16:49;;;;;;;4.35;2.90;;;;;;;;;;5046528;28;20029;-76
2024/03/28 01:19:14;;;;;;;4.93;2.92;;;;;;;;;;5048627;28;20025;-76
2024/03/28 01:21:39;;;;;;;4.93;3.10;;;;;;;;;;5045234;28;20032;-76
2024/03/28 01:24:05;;;;;;;4.65;2.85;;;;;;;;;;5029972;28;20024;-76
2024/03/28 01:26:30;;;;;;;4.30;3.00;;;;;;;;;;5032021;28;20033;-76
2024/03/28 01:28:55;;;;;;;5.00;2.97;;;;;;;;;;5046246;28;20486;-76
2024/03/28 01:31:21;;;;;;;4.88;2.72;;;;;;;;;;5048250;28;20025;-75
2024/03/28 01:33:46;;;;;;;5.63;3.13;;;;;;;;;;5031035;28;20025;-76
2024/03/28 01:36:11;;;;;;;4.43;2.90;;;;;;;;;;5030400;28;20375;-75
2024/03/28 01:38:37;;;;;;;5.43;3.15;;;;;;;;;;5045864;28;20509;-75
2024/03/28 01:41:02;;;;;;;5.25;3.05;;;;;;;;;;5045504;28;20171;-75
2024/03/28 01:43:28;;;;;;;4.72;3.03;;;;;;;;;;5042901;28;20179;-75
2024/03/28 01:45:54;;;;;;;4.38;2.72;;;;;;;;;;5045273;28;20067;-75
2024/03/28 01:48:19;;;;;;;4.55;3.13;;;;;;;;;;5047256;28;20033;-75
2024/03/28 01:50:45;;;;;;;4.78;2.80;;;;;;;;;;5045526;28;20040;-75
2024/03/28 01:53:10;;;;;;;4.18;2.70;;;;;;;;;;5044803;28;20025;-75
2024/03/28 01:55:37;;;;;;;5.07;2.60;;;;;;;;;;5047697;28;20067;-75
2024/03/28 01:58:04;;;;;;;4.13;2.70;;;;;;;;;;5046985;28;20040;-75
2024/03/28 02:00:30;;;;;;;5.10;2.53;;;;;;;;;;5045760;28;20025;-76
2024/03/28 02:02:56;;;;;;;4.47;2.35;;;;;;;;;;5073088;22;20048;-85
2024/03/28 02:05:22;;;;;;;4.22;2.50;;;;;;;;;;5067993;28;20025;-85
2024/03/28 02:07:48;;;;;;;5.88;2.58;;;;;;;;;;5066293;28;20028;-85
2024/03/28 02:10:14;;;;;;;4.53;2.53;;;;;;;;;;5068436;28;20055;-84
2024/03/28 02:12:40;;;;;;;4.28;2.28;;;;;;;;;;5048769;28;20039;-85
2024/03/28 02:15:06;;;;;;;5.18;2.30;;;;;;;;;;5067745;28;20461;-85
2024/03/28 02:17:32;;;;;;;4.07;2.42;;;;;;;;;;5049958;28;20077;-84
2024/03/28 02:19:58;;;;;;;5.00;2.50;;;;;;;;;;5069070;28;20095;-85
2024/03/28 02:22:23;;;;;;;3.47;2.33;;;;;;;;;;5066970;28;20173;-84
2024/03/28 02:24:50;;;;;;;4.53;2.70;;;;;;;;;;5066631;28;20055;-85
2024/03/28 02:27:16;;;;;;;4.05;2.30;;;;;;;;;;5049846;28;20436;-85
2024/03/28 02:29:42;;;;;;;5.97;2.80;;;;;;;;;;5067328;28;20084;-85
2024/03/28 02:32:07;;;;;;;4.07;2.58;;;;;;;;;;5066654;28;20082;-84
2024/03/28 02:34:32;;;;;;;3.88;2.40;;;;;;;;;;5069107;28;20021;-84
2024/03/28 02:36:58;;;;;;;4.93;2.70;;;;;;;;;;5051139;28;20027;-84
2024/03/28 02:39:24;;;;;;;4.70;2.90;;;;;;;;;;5065140;28;20406;-85
2024/03/28 02:41:51;;;;;;;3.45;2.33;;;;;;;;;;5067329;28;20086;-84
2024/03/28 02:44:16;;;;;;;5.05;2.50;;;;;;;;;;5045801;28;20029;-84
2024/03/28 02:46:41;;;;;;;4.82;2.70;;;;;;;;;;5067676;28;20040;-84
2024/03/28 02:49:07;;;;;;;4.10;2.50;;;;;;;;;;5069343;28;20037;-84
2024/03/28 02:51:32;;;;;;;5.47;2.95;;;;;;;;;;5051074;28;20024;-84
2024/03/28 02:53:57;;;;;;;5.85;2.83;;;;;;;;;;5045173;28;20036;-84
2024/03/28 02:56:23;;;;;;;5.20;2.75;;;;;;;;;;5045081;28;20067;-84
2024/03/28 02:58:48;;;;;;;3.83;2.72;;;;;;;;;;5029499;28;20028;-84
2024/03/28 03:01:14;;;;;;;4.55;2.67;;;;;;;;;;5028774;28;20029;-84
2024/03/28 03:03:39;;;;;;;4.65;2.83;;;;;;;;;;5030694;28;20123;-84
2024/03/28 03:06:04;;;;;;;5.03;2.55;;;;;;;;;;5045294;28;20056;-84
2024/03/28 03:08:30;;;;;;;5.15;2.35;;;;;;;;;;5028538;28;20029;-84
2024/03/28 03:10:55;;;;;;;4.65;2.50;;;;;;;;;;5044069;28;20383;-84
2024/03/28 03:13:20;;;;;;;4.05;2.42;;;;;;;;;;5045540;28;20414;-79
2024/03/28 03:15:52;;;;;;;3.53;2.20;;;;;;;;;;5025548;28;20127;-79
2024/03/28 03:18:25;;;;;;;3.90;2.30;;;;;;;;;;5045293;28;20755;-79
2024/03/28 03:21:00;;;;;;;3.95;2.33;;;;;;;;;;5045173;28;20094;-78
2024/03/28 03:23:27;;;;;;;4.45;2.35;;;;;;;;;;5025710;28;20033;-79
2024/03/28 03:25:59;;;;;;;4.18;2.30;;;;;;;;;;5042522;28;20115;-79
2024/03/28 03:36:39;;;;;;;3.25;2.08;;;;;;;;;;5047882;28;20039;-79
2024/03/28 03:39:05;;;;;;;3.38;2.13;;;;;;;;;;5043825;28;20084;-78
2024/03/28 03:41:30;;;;;;;4.95;2.35;;;;;;;;;;5027377;28;20036;-79
2024/03/28 03:43:55;;;;;;;7.65;2.63;;;;;;;;;;5028190;28;20021;-79
2024/03/28 03:46:21;;;;;;;3.25;2.17;;;;;;;;;;5027169;28;20055;-79
2024/03/28 03:48:46;;;;;;;4.35;2.42;;;;;;;;;;5043884;28;20051;-77
2024/03/28 03:51:12;;;;;;;5.95;2.50;;;;;;;;;;5045255;28;20506;-79
2024/03/28 03:53:37;;;;;;;3.67;2.30;;;;;;;;;;5042602;28;20059;-79
2024/03/28 03:56:03;;;;;;;4.72;2.50;;;;;;;;;;5026871;28;20087;-79
2024/03/28 03:58:28;;;;;;;5.25;2.55;;;;;;;;;;5034137;28;20071;-79
2024/03/28 04:00:54;;;;;;;3.67;2.30;;;;;;;;;;5047764;28;20031;-79
2024/03/28 04:03:19;;;;;;;7.70;2.95;;;;;;;;;;5033063;28;20029;-79
2024/03/28 04:05:45;;;;;;;4.28;2.38;;;;;;;;;;5046398;28;20115;-79
2024/03/28 04:08:10;;;;;;;4.00;2.30;;;;;;;;;;5030872;28;20372;-79
2024/03/28 04:10:36;;;;;;;5.15;2.65;;;;;;;;;;5032123;28;20812;-79
2024/03/28 04:13:01;;;;;;;3.92;2.65;;;;;;;;;;5042855;28;20029;-79
2024/03/28 04:15:27;;;;;;;3.97;2.60;;;;;;;;;;5042768;28;20027;-78
2024/03/28 04:17:52;;;;;;;4.93;2.55;;;;;;;;;;5032567;28;20029;-79
2024/03/28 04:20:17;;;;;;;5.72;2.40;;;;;;;;;;5038910;28;20037;-79
2024/03/28 04:22:43;;;;;;;5.25;2.67;;;;;;;;;;5031716;28;20029;-79
2024/03/28 04:25:08;;;;;;;4.45;2.80;;;;;;;;;;5026504;28;20116;-79
2024/03/28 04:27:33;;;;;;;5.03;2.78;;;;;;;;;;5030455;28;20482;-79
2024/03/28 04:29:59;;;;;;;4.20;2.80;;;;;;;;;;5029813;28;20025;-79
2024/03/28 04:32:24;;;;;;;5.38;2.53;;;;;;;;;;5046779;28;20025;-78
2024/03/28 04:34:50;;;;;;;3.72;2.63;;;;;;;;;;5040584;28;20025;-78
2024/03/28 04:37:15;;;;;;;4.22;2.47;;;;;;;;;;5049859;28;20017;-79
2024/03/28 04:39:40;;;;;;;4.35;2.50;;;;;;;;;;5024612;28;20399;-79
2024/03/28 04:42:06;;;;;;;5.20;2.60;;;;;;;;;;5047920;28;20446;-79
2024/03/28 04:44:32;;;;;;;4.60;3.03;;;;;;;;;;5043546;28;20026;-78
2024/03/28 04:46:57;;;;;;;4.35;2.80;;;;;;;;;;5031355;28;20120;-79
2024/03/28 04:49:23;;;;;;;4.15;2.42;;;;;;;;;;5046346;28;20029;-79
2024/03/28 04:51:49;;;;;;;4.47;2.70;;;;;;;;;;5030606;28;20115;-79
2024/03/28 04:54:14;;;;;;;4.85;2.90;;;;;;;;;;5032897;28;20455;-79
2024/03/28 04:56:41;;;;;;;6.20;3.20;;;;;;;;;;5030270;28;20033;-79
2024/03/28 04:59:06;;;;;;;7.20;3.30;;;;;;;;;;5029658;28;20395;-79
2024/03/28 05:01:32;;;;;;;5.72;2.70;;;;;;;;;;5042926;28;20036;-79
2024/03/28 05:03:57;;;;;;;5.03;3.00;;;;;;;;;;5028411;28;20025;-79
2024/03/28 05:06:23;;;;;;;6.30;3.00;;;;;;;;;;5047133;28;20036;-79
2024/03/28 05:08:49;;;;;;;4.43;2.97;;;;;;;;;;5030626;28;20124;-79
2024/03/28 05:11:14;;;;;;;4.57;2.95;;;;;;;;;;5031156;28;20554;-79
2024/03/28 05:13:39;;;;;;;4.85;2.70;;;;;;;;;;5047088;28;20025;-79
2024/03/28 05:16:06;;;;;;;5.07;2.95;;;;;;;;;;5045458;28;20071;-79
2024/03/28 05:18:32;;;;;;;6.78;3.30;;;;;;;;;;5031986;28;20055;-79
2024/03/28 05:20:57;;;;;;;5.93;3.13;;;;;;;;;;5030815;28;20021;-79
2024/03/28 05:23:22;;;;;;;6.15;2.90;;;;;;;;;;5046518;28;20033;-79
2024/03/28 05:25:48;;;;;;;4.65;3.10;;;;;;;;;;5048568;28;20552;-79
2024/03/28 05:28:13;;;;;;;4.68;3.00;;;;;;;;;;5036472;28;20025;-79
2024/03/28 05:30:38;;;;;;;5.70;3.28;;;;;;;;;;5052580;28;20474;-79
2024/03/28 05:33:05;;;;;;;4.50;3.08;;;;;;;;;;5051602;28;20033;-79
2024/03/28 05:35:31;;;;;;;6.22;3.63;;;;;;;;;;5051296;28;20062;-79
2024/03/28 05:37:57;;;;;;;6.07;3.40;;;;;;;;;;5053204;28;20044;-78
2024/03/28 05:40:22;;;;;;;5.18;3.38;;;;;;;;;;5035125;28;20407;-79
2024/03/28 05:42:47;;;;;;;5.18;3.60;;;;;;;;;;5046472;28;20037;-79
2024/03/28 05:45:13;;;;;;;5.50;3.28;;;;;;;;;;5050561;28;20048;-79
2024/03/28 05:47:38;;;;;;;5.72;3.28;;;;;;;;;;5051355;28;20547;-78
2024/03/28 05:50:04;;;;;;;5.43;3.20;;;;;;;;;;5044820;28;20510;-78
2024/03/28 05:52:30;;;;;;;6.13;3.17;;;;;;;;;;5050711;28;20029;-79
2024/03/28 05:54:55;;;;;;;6.10;3.88;;;;;;;;;;5032270;28;20383;-79
2024/03/28 05:57:20;;;;;;;5.20;3.50;;;;;;;;;;5034470;28;20102;-79
2024/03/28 05:59:46;;;;;;;5.28;3.50;;;;;;;;;;5049469;28;20392;-78
2024/03/28 06:02:11;;;;;;;5.57;3.63;;;;;;;;;;5046084;28;20113;-79
2024/03/28 06:04:36;;;;;;;5.05;3.55;;;;;;;;;;5051148;28;20029;-78
2024/03/28 06:07:02;;;;;;;5.40;3.60;;;;;;;;;;5049587;28;20495;-79
2024/03/28 06:09:27;;;;;;;7.40;3.72;;;;;;;;;;5048691;28;20067;-77
2024/03/28 06:11:53;;;;;;;5.45;3.58;;;;;;;;;;5030456;28;20024;-77
2024/03/28 06:14:18;;;;;;;5.85;3.30;;;;;;;;;;5051108;28;20071;-77
2024/03/28 06:16:43;;;;;;;6.07;3.67;;;;;;;;;;5039757;28;20036;-77
2024/03/28 06:19:09;;;;;;;4.80;3.25;;;;;;;;;;5041109;28;20028;-77
2024/03/28 06:21:34;;;;;;;5.32;3.70;;;;;;;;;;5039770;28;20074;-77
2024/03/28 06:24:00;;;;;;;7.88;4.25;;;;;;;;;;5036915;28;20372;-78
2024/03/28 06:26:25;;;;;;;6.80;3.97;;;;;;;;;;5051322;28;20025;-77
2024/03/28 06:28:53;;;;;;;6.80;3.90;;;;;;;;;;5038384;28;20463;-78
2024/03/28 06:31:21;;;;;;;6.70;3.85;;;;;;;;;;5049906;28;20061;-77
2024/03/28 06:33:49;;;;;;;6.55;3.60;;;;;;;;;;5037233;28;20021;-78
2024/03/28 06:36:15;;;;;;;5.10;3.22;;;;;;;;;;5035456;28;20491;-78
2024/03/28 06:38:40;;;;;;;5.07;3.63;;;;;;;;;;5052453;28;20029;-77
2024/03/28 06:41:06;;;;;;;6.35;3.85;;;;;;;;;;5052381;28;20021;-77
2024/03/28 06:43:31;;;;;;;4.80;3.30;;;;;;;;;;5046909;28;20527;-86
2024/03/28 06:45:57;;;;;;;5.97;3.55;;;;;;;;;;5033219;28;20029;-85
2024/03/28 06:48:22;;;;;;;4.47;3.28;;;;;;;;;;5049578;28;20066;-84
2024/03/28 06:50:47;;;;;;;5.18;3.40;;;;;;;;;;5033729;28;20025;-85
2024/03/28 06:53:14;;;;;;;5.10;3.67;;;;;;;;;;5034168;28;20475;-86
2024/03/28 06:55:39;;;;;;;5.60;3.55;;;;;;;;;;5052289;28;20025;-85
2024/03/28 06:58:05;;;;;;;4.82;3.30;;;;;;;;;;5050044;28;20033;-85
2024/03/28 07:00:31;;;;;;;6.05;3.38;;;;;;;;;;5051043;28;20032;-85
2024/03/28 07:02:57;;;;;;;5.25;3.28;;;;;;;;;;5033461;28;20048;-85
2024/03/28 07:05:23;;;;;;;5.03;3.20;;;;;;;;;;5031644;28;20534;-85
2024/03/28 07:07:49;;;;;;;6.72;3.55;;;;;;;;;;5035627;28;20510;-85
2024/03/28 07:10:14;;;;;;;5.53;3.20;;;;;;;;;;5050436;28;20035;-86
2024/03/28 07:12:39;;;;;;;5.72;3.55;;;;;;;;;;5033179;28;20494;-86
2024/03/28 07:15:05;;;;;;;4.13;2.83;;;;;;;;;;5051725;28;20593;-85
2024/03/28 07:17:31;;;;;;;4.60;3.35;;;;;;;;;;5030261;28;20051;-85
2024/03/28 07:19:56;;;;;;;4.82;3.13;;;;;;;;;;5031838;28;20051;-85
2024/03/28 07:22:22;;;;;;;7.10;3.35;;;;;;;;;;5031706;28;20032;-86
2024/03/28 07:24:48;;;;;;;5.95;3.33;;;;;;;;;;5028419;28;20064;-85
2024/03/28 07:27:13;;;;;;;7.25;3.47;;;;;;;;;;5024229;28;20025;-85
2024/03/28 07:29:38;;;;;;;5.43;3.30;;;;;;;;;;5041559;28;20053;-85
2024/03/28 07:32:04;;;;;;;4.70;3.15;;;;;;;;;;5052047;28;20028;-84
2024/03/28 07:34:29;;;;;;;5.63;3.20;;;;;;;;;;5034744;28;20009;-85
2024/03/28 07:36:55;;;;;;;4.68;2.80;;;;;;;;;;5043723;28;20075;-85
2024/03/28 07:39:23;;;;;;;4.88;2.83;;;;;;;;;;5046346;28;20483;-90
2024/03/28 07:41:49;;;;;;;5.53;2.90;;;;;;;;;;5049565;28;20078;-88
2024/03/28 07:44:15;;;;;;;5.10;2.88;;;;;;;;;;5047168;28;20029;-89
2024/03/28 07:46:40;;;;;;;4.28;2.70;;;;;;;;;;5031886;28;20030;-87
2024/03/28 07:49:06;;;;;;;5.47;2.63;;;;;;;;;;5043876;28;20383;-87
2024/03/28 07:51:32;;;;;;;4.15;2.65;;;;;;;;;;5037896;28;20025;-89
2024/03/28 07:53:57;;;;;;;4.78;2.47;;;;;;;;;;5043471;28;20033;-88
2024/03/28 07:56:23;;;;;;;4.97;2.58;;;;;;;;;;5060448;28;20025;-87
2024/03/28 07:58:48;;;;;;;4.57;2.38;;;;;;;;;;5032479;28;20119;-87
2024/03/28 08:01:14;;;;;;;5.53;2.42;;;;;;;;;;5049464;28;20049;-90
2024/03/28 08:03:39;;;;;;;3.83;2.20;;;;;;;;;;5029988;28;20025;-88
2024/03/28 08:06:05;;;;;;;5.72;2.08;;;;;;;;;;5048040;28;20047;-89
2024/03/28 08:08:31;;;;;;;5.07;2.10;;;;;;;;;;5050279;28;20053;-89
2024/03/28 08:10:58;;;;;;;4.03;1.98;;;;;;;;;;5042948;28;20033;-88
2024/03/28 08:13:24;;;;;;;3.90;2.30;;;;;;;;;;5046408;28;20533;-90
2024/03/28 08:15:49;;;;;;;4.20;2.30;;;;;;;;;;5019645;28;20025;-90
2024/03/28 08:18:16;;;;;;;4.13;2.28;;;;;;;;;;5046284;28;20032;-93
2024/03/28 08:20:42;;;;;;;4.30;2.45;;;;;;;;;;5043436;28;20029;-91
2024/03/28 08:23:08;;;;;;;5.30;2.28;;;;;;;;;;5046890;28;20032;-90
2024/03/28 08:25:33;;;;;;;4.18;2.10;;;;;;;;;;5044506;28;20108;-90
2024/03/28 08:27:58;;;;;;;4.35;2.55;;;;;;;;;;5049320;28;20464;-91
2024/03/28 08:30:24;;;;;;;6.25;2.60;;;;;;;;;;5049615;28;20024;-90
2024/03/28 08:32:50;;;;;;;3.42;2.13;;;;;;;;;;5038489;28;20021;-91
2024/03/28 08:35:16;;;;;;;3.35;2.00;;;;;;;;;;5051132;28;20021;-91
2024/03/28 08:37:42;;;;;;;4.07;2.15;;;;;;;;;;5035288;28;20021;-90
2024/03/28 08:40:09;;;;;;;2.92;2.10;;;;;;;;;;5032994;28;20512;-93
2024/03/28 08:42:43;;;;;;;3.75;2.20;;;;;;;;;;5052497;28;20505;-92
2024/03/28 08:45:11;;;;;;;3.85;2.03;;;;;;;;;;5054811;28;20021;-91
2024/03/28 08:47:37;;;;;;;4.90;2.28;;;;;;;;;;5056732;28;20029;-92
2024/03/28 08:50:04;;;;;;;4.60;2.20;;;;;;;;;;5055983;28;20029;-90
2024/03/28 08:52:30;;;;;;;3.85;1.80;;;;;;;;;;5054830;28;20083;-89
2024/03/28 08:54:56;;;;;;;3.33;1.95;;;;;;;;;;5028396;28;20025;-89
2024/03/28 08:57:22;;;;;;;5.22;2.28;;;;;;;;;;5036921;28;20087;-89
2024/03/28 08:59:47;;;;;;;3.92;2.10;;;;;;;;;;5034686;28;20055;-89
2024/03/28 09:02:14;;;;;;;4.10;1.98;;;;;;;;;;5048107;28;20386;-88
2024/03/28 09:04:40;;;;;;;3.33;2.10;;;;;;;;;;5049552;28;20032;-87
2024/03/28 09:07:05;;;;;;;2.55;1.67;;;;;;;;;;5055524;28;20414;-88
2024/03/28 09:09:31;;;;;;;4.30;1.90;;;;;;;;;;5055995;28;20017;-88
2024/03/28 09:11:57;;;;;;;4.30;1.70;;;;;;;;;;5045444;28;20026;-87
2024/03/28 09:14:23;;;;;;;3.05;1.70;;;;;;;;;;5055221;28;20021;-88
2024/03/28 09:16:49;;;;;;;2.83;1.70;;;;;;;;;;5036239;28;20054;-89
2024/03/28 09:19:14;;;;;;;2.88;1.70;;;;;;;;;;5037632;28;20024;-89
2024/03/28 09:21:40;;;;;;;3.03;1.92;;;;;;;;;;5035785;28;20028;-87
2024/03/28 09:24:08;;;;;;;2.65;1.77;;;;;;;;;;5033532;28;20033;-87
2024/03/28 09:26:33;;;;;;;2.83;1.67;;;;;;;;;;5035063;28;20037;-89
2024/03/28 09:28:59;;;;;;;3.42;1.80;;;;;;;;;;5032023;28;20070;-88
2024/03/28 09:31:27;;;;;;;2.70;1.80;;;;;;;;;;5036723;28;20033;-87
2024/03/28 09:33:53;;;;;;;3.15;1.50;;;;;;;;;;5053490;28;20020;-88
2024/03/28 09:36:19;;;;;;;4.63;1.67;;;;;;;;;;5028099;28;20490;-88
2024/03/28 09:38:53;;;;;;;2.42;1.48;;;;;;;;;;5050194;28;20033;-87
2024/03/28 09:41:30;;;;;;;3.88;1.60;;;;;;;;;;5053514;28;20087;-87
2024/03/28 09:44:13;;;;;;;2.33;1.50;;;;;;;;;;5026513;28;20029;-88
2024/03/28 09:46:41;;;;;;;3.50;1.67;;;;;;;;;;5037057;28;20056;-87
2024/03/28 09:49:08;;;;;;;2.95;1.50;;;;;;;;;;5034582;28;20013;-86
2024/03/28 09:51:34;;;;;;;2.33;1.52;;;;;;;;;;5041684;28;20059;-86
2024/03/28 09:54:05;;;;;;;2.47;1.65;;;;;;;;;;5051525;28;20061;-86
2024/03/28 09:56:30;;;;;;;2.80;1.70;;;;;;;;;;5050004;28;20549;-86
2024/03/28 09:58:56;;;;;;;2.70;1.70;;;;;;;;;;5054387;28;20036;-86
2024/03/28 10:01:23;;;;;;;3.13;1.70;;;;;;;;;;5035446;28;20029;-86
2024/03/28 10:04:05;;;;;;;3.30;1.70;;;;;;;;;;5044759;28;20029;-85
2024/03/28 10:06:31;;;;;;;2.53;1.70;;;;;;;;;;5046559;28;20118;-85
2024/03/28 10:08:57;;;;;;;3.80;1.70;;;;;;;;;;5036613;28;20029;-85
2024/03/28 10:11:23;;;;;;;2.35;1.50;;;;;;;;;;5050480;28;20079;-84
2024/03/28 10:13:49;;;;;;;4.90;1.50;;;;;;;;;;5043090;28;20028;-79
2024/03/28 10:16:18;;;;;;;1.48;1.10;;;;;;;;;;5052341;28;20463;-79
2024/03/28 10:18:44;;;;;;;2.13;1.00;;;;;;;;;;5027220;28;20022;-79
2024/03/28 10:21:12;;;;;;;1.33;1.08;;;;;;;;;;5044461;28;20498;-79
2024/03/28 10:23:39;;;;;;;1.73;1.10;;;;;;;;;;5035179;28;20033;-79
2024/03/28 10:26:09;;;;;;;1.77;1.08;;;;;;;;;;5031356;28;20119;-79
2024/03/28 10:28:36;;;;;;;1.92;1.15;;;;;;;;;;5047874;28;20028;-79
2024/03/28 10:31:02;;;;;;;3.13;1.30;;;;;;;;;;5044736;28;20391;-79
2024/03/28 10:33:28;;;;;;;2.13;1.30;;;;;;;;;;5024883;28;20017;-79
2024/03/28 10:36:00;;;;;;;2.50;1.40;;;;;;;;;;5047558;28;20017;-79
2024/03/28 10:38:26;;;;;;;2.92;1.55;;;;;;;;;;5049160;28;20035;-79
2024/03/28 10:40:58;;;;;;;2.38;1.60;;;;;;;;;;5029367;28;20028;-79
2024/03/28 10:43:25;;;;;;;3.40;1.80;;;;;;;;;;5033854;28;20032;-79
2024/03/28 10:45:52;;;;;;;2.83;1.80;;;;;;;;;;5050729;28;20032;-79
2024/03/28 10:48:18;;;;;;;2.97;1.88;;;;;;;;;;5048745;28;20025;-79
2024/03/28 10:51:08;;;;;;;4.15;2.10;;;;;;;;;;5050792;28;20086;-79
2024/03/28 10:53:55;;;;;;;4.97;2.00;;;;;;;;;;5051810;28;20036;-79
2024/03/28 10:56:23;;;;;;;4.78;2.20;;;;;;;;;;5034814;28;20016;-79
2024/03/28 10:58:49;;;;;;;3.67;2.10;;;;;;;;;;5025372;28;20029;-79
2024/03/28 11:01:15;;;;;;;4.65;2.55;;;;;;;;;;5029807;28;20032;-79
2024/03/28 11:03:42;;;;;;;4.43;2.90;;;;;;;;;;5048446;28;20068;-79
2024/03/28 11:06:09;;;;;;;6.40;2.80;;;;;;;;;;5032347;28;20152;-79
2024/03/28 11:08:35;;;;;;;5.50;3.20;;;;;;;;;;5033942;28;20069;-79
2024/03/28 11:11:01;;;;;;;6.47;3.33;;;;;;;;;;5025691;28;20055;-79
2024/03/28 11:13:28;;;;;;;5.82;3.00;;;;;;;;;;5027203;28;20025;-79
2024/03/28 11:16:04;;;;;;;5.03;3.28;;;;;;;;;;5025470;28;20029;-79
2024/03/28 11:18:32;;;;;;;8.00;3.92;;;;;;;;;;5043960;28;20468;-79
2024/03/28 11:20:57;;;;;;;6.55;3.50;;;;;;;;;;5025231;28;20487;-79
2024/03/28 11:23:23;;;;;;;7.30;3.40;;;;;;;;;;5052060;28;20056;-84
2024/03/28 11:25:48;;;;;;;7.32;4.57;;;;;;;;;;5044128;28;20166;-84
2024/03/28 11:28:14;;;;;;;6.82;4.85;;;;;;;;;;5022786;28;20056;-84
2024/03/28 11:30:54;;;;;;;10.25;5.20;;;;;;;;;;5050812;28;20040;-83
2024/03/28 11:33:33;;;;;;;8.13;4.53;;;;;;;;;;5023949;28;20040;-84
2024/03/28 11:36:04;;;;;;;7.47;4.50;;;;;;;;;;5049195;28;20041;-84
2024/03/28 11:38:30;;;;;;;10.98;5.03;;;;;;;;;;5042352;28;20033;-84
2024/03/28 11:40:57;;;;;;;8.18;4.22;;;;;;;;;;5042765;28;20029;-84
2024/03/28 11:43:23;;;;;;;6.53;3.90;;;;;;;;;;5047550;28;20486;-83
2024/03/28 11:45:53;;;;;;;6.53;3.60;;;;;;;;;;5030310;28;20025;-84
2024/03/28 11:48:20;;;;;;;6.70;3.55;;;;;;;;;;5039327;28;20029;-84
2024/03/28 11:50:47;;;;;;;6.78;3.50;;;;;;;;;;5052106;28;20024;-84
2024/03/28 11:53:13;;;;;;;5.15;3.00;;;;;;;;;;5034299;28;20044;-84
2024/03/28 11:55:48;;;;;;;5.85;2.60;;;;;;;;;;5045273;28;20032;-84
2024/03/28 11:58:29;;;;;;;6.47;2.70;;;;;;;;;;5023958;28;20024;-85
2024/03/28 12:01:02;;;;;;;5.88;2.63;;;;;;;;;;5043473;28;20017;-85
2024/03/28 12:03:28;;;;;;;7.30;2.85;;;;;;;;;;5020210;28;20168;-84
2024/03/28 12:05:56;;;;;;;6.95;2.70;;;;;;;;;;5028447;28;20463;-85
2024/03/28 12:08:23;;;;;;;3.13;2.15;;;;;;;;;;5047433;28;20021;-84
2024/03/28 12:10:49;;;;;;;5.20;1.80;;;;;;;;;;5033731;28;20490;-85
2024/03/28 12:13:15;;;;;;;3.90;1.70;;;;;;;;;;5051246;28;20059;-84
2024/03/28 12:15:40;;;;;;;4.93;1.80;;;;;;;;;;5050797;28;20518;-84
2024/03/28 12:18:06;;;;;;;2.97;1.50;;;;;;;;;;5023501;28;20380;-86
2024/03/28 12:20:32;;;;;;;4.32;1.30;;;;;;;;;;5025700;28;20567;-85
2024/03/28 12:22:58;;;;;;;4.07;1.30;;;;;;;;;;5046703;28;20083;-84
2024/03/28 12:25:25;;;;;;;5.20;1.27;;;;;;;;;;5049625;28;20048;-85
2024/03/28 12:28:03;;;;;;;4.05;1.30;;;;;;;;;;5043786;28;20386;-85
2024/03/28 12:30:29;;;;;;;3.38;1.30;;;;;;;;;;5055172;28;20459;-85
2024/03/28 12:33:06;;;;;;;2.72;1.23;;;;;;;;;;5045665;28;20052;-84
2024/03/28 12:35:33;;;;;;;1.65;1.10;;;;;;;;;;5025891;28;20055;-84
2024/03/28 12:38:01;;;;;;;5.15;2.13;;;;;;;;;;5054839;28;20498;-84
2024/03/28 12:40:27;;;;;;;7.75;1.55;;;;;;;;;;5028664;28;20598;-85
2024/03/28 12:42:53;;;;;;;3.08;1.27;;;;;;;;;;5023453;28;20028;-85
2024/03/28 12:45:23;;;;;;;3.08;1.20;;;;;;;;;;5050660;28;20083;-84
2024/03/28 12:47:50;;;;;;;1.70;1.10;;;;;;;;;;5051954;28;20043;-85
2024/03/28 12:50:18;;;;;;;1.75;1.13;;;;;;;;;;5030238;28;20032;-84
2024/03/28 12:52:48;;;;;;;4.00;1.25;;;;;;;;;;5050069;28;20052;-84
2024/03/28 12:55:14;;;;;;;1.98;1.10;;;;;;;;;;5033996;28;20047;-84
2024/03/28 12:57:40;;;;;;;1.90;0.90;;;;;;;;;;5028383;28;20029;-85
2024/03/28 13:00:08;;;;;;;2.30;0.50;;;;;;;;;;5034337;28;20405;-84
2024/03/28 13:02:34;;;;;;;1.33;0.50;;;;;;;;;;5035984;28;20021;-84
2024/03/28 13:04:59;;;;;;;0.80;0.60;;;;;;;;;;5029239;28;20026;-85
2024/03/28 13:07:25;;;;;;;1.02;0.47;;;;;;;;;;5050168;28;20021;-84
2024/03/28 13:09:51;;;;;;;0.73;0.45;;;;;;;;;;5038109;28;20029;-84
2024/03/28 13:12:17;;;;;;;0.68;0.30;;;;;;;;;;5047739;28;20029;-84
2024/03/28 13:14:42;;;;;;;0.95;0.43;;;;;;;;;;5038400;28;20441;-84
2024/03/28 13:17:08;;;;;;;1.10;0.40;;;;;;;;;;5031221;28;20442;-84
2024/03/28 13:19:33;;;;;;;0.80;0.50;;;;;;;;;;5053531;28;20025;-85
2024/03/28 13:21:58;;;;;;;1.10;0.50;;;;;;;;;;5050028;28;20025;-84
2024/03/28 13:24:24;;;;;;;0.93;0.40;;;;;;;;;;5036063;28;20029;-85
2024/03/28 13:26:50;;;;;;;0.75;0.52;;;;;;;;;;5045334;28;20497;-85
2024/03/28 13:29:16;;;;;;;2.05;0.60;;;;;;;;;;5036615;28;20413;-85
2024/03/28 13:31:41;;;;;;;1.95;0.50;;;;;;;;;;5047458;28;20029;-84
2024/03/28 13:34:07;;;;;;;2.03;0.40;;;;;;;;;;5027024;28;20475;-84
2024/03/28 13:36:32;;;;;;;0.80;0.43;;;;;;;;;;5053992;28;20025;-84
2024/03/28 13:38:58;;;;;;;2.17;0.40;;;;;;;;;;5037127;28;20025;-84
2024/03/28 13:41:23;;;;;;;1.75;0.40;;;;;;;;;;5052069;28;20031;-84
2024/03/28 13:43:49;;;;;;;0.95;0.40;;;;;;;;;;5045799;28;20545;-79
2024/03/28 13:46:14;;;;;;;0.68;0.35;;;;;;;;;;5044567;28;20116;-78
2024/03/28 13:48:40;;;;;;;1.15;0.40;;;;;;;;;;5042251;28;20029;-78
2024/03/28 13:51:05;;;;;;;1.38;0.50;;;;;;;;;;5042458;28;20052;-78
2024/03/28 13:53:31;;;;;;;0.98;0.57;;;;;;;;;;5044903;28;20052;-78
2024/03/28 13:55:57;;;;;;;1.20;0.40;;;;;;;;;;5033784;28;20035;-78
2024/03/28 13:58:22;;;;;;;0.95;0.68;;;;;;;;;;5030667;28;20047;-79
2024/03/28 14:00:47;;;;;;;1.48;0.50;;;;;;;;;;5021567;28;20025;-78
2024/03/28 14:03:13;;;;;;;2.00;0.60;;;;;;;;;;5045229;28;20024;-79
2024/03/28 14:05:38;;;;;;;1.52;0.47;;;;;;;;;;5022950;28;20033;-79
2024/03/28 14:08:04;;;;;;;1.05;0.40;;;;;;;;;;5050812;28;20120;-78
2024/03/28 14:10:29;;;;;;;1.17;0.30;;;;;;;;;;5023385;28;20016;-78
2024/03/28 14:12:55;;;;;;;1.02;0.40;;;;;;;;;;5047030;28;20040;-78
2024/03/28 14:15:20;;;;;;;0.90;0.50;;;;;;;;;;5043654;28;20017;-78
2024/03/28 14:17:46;;;;;;;2.08;0.57;;;;;;;;;;5027317;28;20029;-78
2024/03/28 14:20:11;;;;;;;0.60;0.35;;;;;;;;;;5027414;28;20033;-78
2024/03/28 14:22:37;;;;;;;1.08;0.50;;;;;;;;;;5051612;28;20028;-78
2024/03/28 14:25:02;;;;;;;1.75;0.50;;;;;;;;;;5047841;28;20361;-78
2024/03/28 14:27:27;;;;;;;2.25;0.50;;;;;;;;;;5047021;28;20058;-78
2024/03/28 14:29:54;;;;;;;1.80;0.50;;;;;;;;;;5051538;28;20028;-78
2024/03/28 14:32:20;;;;;;;1.80;0.47;;;;;;;;;;5032473;28;20115;-78
2024/03/28 14:34:45;;;;;;;2.15;0.50;;;;;;;;;;5040785;28;20543;-78
2024/03/28 14:37:10;;;;;;;0.85;0.50;;;;;;;;;;5043282;28;20431;-78
2024/03/28 14:39:36;;;;;;;2.92;0.43;;;;;;;;;;5051879;28;20035;-78
2024/03/28 14:42:01;;;;;;;1.20;0.52;;;;;;;;;;5029751;28;20562;-78
2024/03/28 14:44:27;;;;;;;2.10;0.52;;;;;;;;;;5020833;28;20033;-78
2024/03/28 14:46:52;;;;;;;1.85;0.40;;;;;;;;;;5044300;28;20116;-78